createdAt,value
2022-10-18T00:00:48.364Z,33.50
2022-10-18T00:03:15.698Z,32.63
2022-10-18T00:05:42.343Z,29.67
2022-10-18T00:08:08.980Z,31.37
2022-10-18T00:10:35.606Z,24.63
2022-10-18T00:13:02.307Z,35.33
2022-10-18T00:15:28.949Z,25.77
2022-10-18T00:17:55.581Z,31.30
2022-10-18T00:20:22.805Z,22.27
2022-10-18T00:22:49.405Z,27.00
2022-10-18T00:25:16.108Z,26.90
2022-10-18T00:27:42.703Z,30.53
2022-10-18T00:30:10.141Z,28.27
2022-10-18T00:32:37.766Z,32.97
2022-10-18T00:35:05.444Z,27.83
2022-10-18T00:37:33.326Z,32.50
2022-10-18T00:40:00.347Z,28.30
2022-10-18T00:42:31.259Z,27.87
2022-10-18T00:45:18.130Z,30.53
2022-10-18T00:47:49.185Z,25.87
2022-10-18T00:50:16.280Z,39.43
2022-10-18T00:52:46.598Z,24.73
2022-10-18T00:55:13.396Z,25.10
2022-10-18T00:57:42.646Z,30.87
2022-10-18T01:00:10.416Z,19.80
2022-10-18T01:02:37.806Z,30.80
2022-10-18T01:05:05.232Z,29.77
2022-10-18T01:07:48.995Z,28.27
2022-10-18T01:10:25.816Z,33.23
2022-10-18T01:13:01.911Z,24.57
2022-10-18T01:15:31.671Z,25.00
2022-10-18T01:18:09.112Z,23.17
2022-10-18T01:20:59.198Z,15.93
2022-10-18T01:23:42.319Z,14.40
2022-10-18T01:26:20.266Z,18.03
2022-10-18T01:28:57.812Z,18.83
2022-10-18T01:31:30.749Z,30.17
2022-10-18T01:33:59.705Z,18.37
2022-10-18T01:36:30.252Z,20.40
2022-10-18T01:39:00.682Z,16.80
2022-10-18T01:41:28.562Z,27.00
2022-10-18T01:43:58.840Z,23.53
2022-10-18T01:46:27.585Z,21.50
2022-10-18T01:48:54.998Z,22.37
2022-10-18T01:51:24.865Z,22.37
2022-10-18T01:53:51.589Z,35.20
2022-10-18T01:56:24.739Z,20.23
2022-10-18T01:59:11.380Z,23.33
2022-10-18T02:01:47.082Z,18.77
2022-10-18T02:04:22.855Z,26.13
2022-10-18T02:06:54.487Z,30.17
2022-10-18T02:09:29.146Z,31.17
2022-10-18T02:11:57.194Z,26.90
2022-10-18T02:14:26.134Z,34.73
2022-10-18T02:16:56.554Z,17.20
2022-10-18T02:19:28.171Z,22.67
2022-10-18T02:21:57.066Z,28.80
2022-10-18T02:24:26.934Z,23.33
2022-10-18T02:26:53.576Z,35.33
2022-10-18T02:29:20.200Z,36.30
2022-10-18T02:31:49.707Z,20.33
2022-10-18T02:34:21.967Z,25.53
2022-10-18T02:36:52.607Z,22.70
2022-10-18T02:39:22.713Z,22.33
2022-10-18T02:41:49.759Z,29.27
2022-10-18T02:44:16.347Z,35.80
2022-10-18T02:46:43.183Z,27.07
2022-10-18T02:49:10.102Z,21.43
2022-10-18T02:51:37.333Z,23.93
2022-10-18T02:54:04.212Z,26.63
2022-10-18T02:56:30.794Z,22.03
2022-10-18T02:58:57.378Z,27.80
2022-10-18T03:01:23.958Z,25.83
2022-10-18T03:03:50.783Z,19.83
2022-10-18T03:06:17.423Z,23.87
2022-10-18T03:08:44.708Z,20.90
2022-10-18T03:11:11.297Z,25.73
2022-10-18T03:13:37.848Z,25.00
2022-10-18T03:16:04.891Z,22.23
2022-10-18T03:18:31.467Z,22.20
2022-10-18T03:20:58.194Z,28.63
2022-10-18T03:23:24.822Z,32.53
2022-10-18T03:25:52.025Z,26.57
2022-10-18T03:28:18.635Z,23.83
2022-10-18T03:30:45.222Z,22.87
2022-10-18T03:33:11.807Z,35.47
2022-10-18T03:35:38.371Z,32.23
2022-10-18T03:38:04.926Z,28.50
2022-10-18T03:43:03.794Z,29.23
2022-10-18T03:45:31.433Z,22.37
2022-10-18T03:47:58.414Z,28.37
2022-10-18T03:50:27.884Z,24.90
2022-10-18T03:52:54.921Z,30.27
2022-10-18T03:55:21.561Z,20.63
2022-10-18T03:57:48.432Z,24.00
2022-10-18T04:00:16.014Z,23.83
2022-10-18T04:02:42.566Z,26.83
2022-10-18T04:05:09.633Z,21.30
2022-10-18T04:10:04.257Z,36.90
2022-10-18T04:12:30.985Z,20.43
2022-10-18T04:14:57.665Z,20.90
2022-10-18T04:17:24.940Z,25.50
2022-10-18T04:19:51.484Z,20.97
2022-10-18T04:22:18.031Z,20.50
2022-10-18T04:24:44.598Z,28.60
2022-10-18T04:27:11.175Z,25.50
2022-10-18T04:29:37.765Z,27.23
2022-10-18T04:32:04.685Z,25.50
2022-10-18T04:34:31.953Z,21.27
2022-10-18T04:36:58.535Z,25.57
2022-10-18T04:39:25.211Z,20.60
2022-10-18T04:41:51.790Z,24.27
2022-10-18T04:44:18.315Z,19.77
2022-10-18T04:46:48.030Z,21.07
2022-10-18T04:49:14.616Z,20.93
2022-10-18T04:51:41.820Z,27.83
2022-10-18T04:54:08.394Z,22.77
2022-10-18T04:56:34.972Z,27.17
2022-10-18T04:59:03.188Z,28.13
2022-10-18T05:01:30.184Z,17.07
2022-10-18T05:03:56.818Z,22.07
2022-10-18T05:06:23.711Z,23.23
2022-10-18T05:08:51.006Z,23.07
2022-10-18T05:11:17.659Z,18.37
2022-10-18T05:13:46.093Z,23.40
2022-10-18T05:16:15.641Z,13.67
2022-10-18T05:18:42.742Z,17.90
2022-10-18T05:21:09.435Z,18.50
2022-10-18T05:23:36.085Z,23.07
2022-10-18T05:26:03.981Z,20.07
2022-10-18T05:28:46.226Z,19.07
2022-10-18T05:31:12.878Z,20.43
2022-10-18T05:33:39.534Z,24.70
2022-10-18T05:36:06.824Z,22.40
2022-10-18T05:38:33.529Z,18.30
2022-10-18T05:41:03.253Z,20.43
2022-10-18T05:43:30.465Z,27.13
2022-10-18T05:45:57.214Z,19.23
2022-10-18T05:48:24.069Z,30.40
2022-10-18T05:50:50.793Z,31.83
2022-10-18T05:53:36.777Z,27.00
2022-10-18T05:56:04.901Z,19.17
2022-10-18T05:58:32.166Z,30.57
2022-10-18T06:00:59.724Z,20.67
2022-10-18T06:03:27.144Z,27.40
2022-10-18T06:05:58.667Z,22.07
2022-10-18T06:08:25.315Z,26.53
2022-10-18T06:10:52.241Z,28.20
2022-10-18T06:13:18.971Z,24.70
2022-10-18T06:15:46.170Z,23.60
2022-10-18T06:18:12.837Z,21.67
2022-10-18T06:20:39.376Z,29.43
2022-10-18T06:23:06.776Z,29.00
2022-10-18T06:25:33.336Z,25.63
2022-10-18T06:27:59.873Z,27.90
2022-10-18T06:30:26.617Z,26.37
2022-10-18T06:32:53.966Z,37.93
2022-10-18T06:35:20.536Z,27.73
2022-10-18T06:37:47.086Z,26.20
2022-10-18T06:40:13.677Z,29.60
2022-10-18T06:42:40.265Z,20.63
2022-10-18T06:45:08.208Z,32.83
2022-10-18T06:47:34.778Z,30.20
2022-10-18T06:50:02.044Z,30.53
2022-10-18T06:52:28.769Z,38.27
2022-10-18T06:54:55.500Z,21.40
2022-10-18T06:57:22.108Z,26.27
2022-10-18T06:59:50.505Z,30.13
2022-10-18T07:02:17.479Z,21.17
2022-10-18T07:04:44.134Z,34.57
2022-10-18T07:07:11.416Z,25.70
2022-10-18T07:09:38.126Z,33.43
2022-10-18T07:12:05.002Z,32.20
2022-10-18T07:14:34.998Z,27.63
2022-10-18T07:17:01.737Z,34.07
2022-10-18T07:19:28.319Z,36.73
2022-10-18T07:21:54.869Z,28.67
2022-10-18T07:24:22.086Z,31.23
2022-10-18T07:26:48.658Z,39.30
2022-10-18T07:29:15.330Z,32.27
2022-10-18T07:31:41.900Z,25.37
2022-10-18T07:34:11.971Z,29.20
2022-10-18T07:36:38.651Z,26.87
2022-10-18T07:39:05.711Z,51.67
2022-10-18T07:41:33.480Z,34.77
2022-10-18T07:44:00.829Z,46.60
2022-10-18T07:46:27.368Z,34.90
2022-10-18T07:48:54.845Z,24.57
2022-10-18T07:51:21.724Z,39.77
2022-10-18T07:53:48.602Z,30.17
2022-10-18T07:56:17.393Z,24.93
2022-10-18T07:58:45.502Z,27.00
2022-10-18T08:01:13.836Z,29.30
2022-10-18T08:03:41.893Z,28.63
2022-10-18T08:06:10.199Z,27.27
2022-10-18T08:08:38.133Z,32.53
2022-10-18T08:11:06.911Z,26.07
2022-10-18T08:13:34.355Z,22.33
2022-10-18T08:16:03.234Z,27.87
2022-10-18T08:18:31.020Z,31.70
2022-10-18T08:21:00.133Z,30.23
2022-10-18T08:23:26.849Z,25.53
2022-10-18T08:25:53.715Z,36.37
2022-10-18T08:28:20.336Z,27.10
2022-10-18T08:30:46.969Z,34.80
2022-10-18T08:33:14.275Z,28.47
2022-10-18T08:35:40.826Z,32.83
2022-10-18T08:38:15.131Z,21.10
2022-10-18T08:40:44.816Z,28.70
2022-10-18T08:43:22.292Z,30.90
2022-10-18T08:45:50.646Z,27.90
2022-10-18T08:48:23.091Z,18.57
2022-10-18T08:50:51.461Z,29.13
2022-10-18T08:53:24.068Z,29.17
2022-10-18T08:55:55.035Z,30.80
2022-10-18T08:58:23.380Z,39.70
2022-10-18T09:01:00.982Z,23.80
2022-10-18T09:03:48.318Z,29.57
2022-10-18T09:06:23.568Z,22.57
2022-10-18T09:09:19.569Z,24.43
2022-10-18T09:11:58.138Z,37.87
2022-10-18T09:14:57.482Z,31.73
2022-10-18T09:17:31.101Z,25.83
2022-10-18T09:20:09.667Z,27.37
2022-10-18T09:22:48.115Z,18.93
2022-10-18T09:25:19.234Z,28.83
2022-10-18T09:27:55.591Z,19.60
2022-10-18T09:30:45.199Z,17.80
2022-10-18T09:33:33.880Z,23.60
2022-10-18T09:36:03.232Z,25.30
2022-10-18T09:38:34.172Z,25.87
2022-10-18T09:41:07.733Z,17.77
2022-10-18T09:43:45.562Z,24.70
2022-10-18T09:46:15.022Z,23.93
2022-10-18T09:48:46.419Z,24.77
2022-10-18T09:51:20.810Z,33.13
2022-10-18T09:54:03.174Z,24.80
2022-10-18T09:56:35.599Z,28.30
2022-10-18T09:59:16.525Z,29.23
2022-10-18T10:01:43.251Z,22.43
2022-10-18T10:04:09.832Z,23.30
2022-10-18T10:06:38.280Z,27.63
2022-10-18T10:09:07.476Z,24.30
2022-10-18T10:11:39.571Z,21.10
2022-10-18T10:14:13.090Z,26.73
2022-10-18T10:16:48.562Z,20.23
2022-10-18T10:19:26.109Z,18.73
2022-10-18T10:21:58.610Z,26.50
2022-10-18T10:24:32.607Z,22.07
2022-10-18T10:27:01.926Z,21.00
2022-10-18T10:29:55.773Z,22.13
2022-10-18T10:32:24.648Z,22.23
2022-10-18T10:34:51.651Z,25.00
2022-10-18T10:37:28.108Z,22.03
2022-10-18T10:40:20.324Z,30.43
2022-10-18T10:43:04.260Z,19.53
2022-10-18T10:45:54.875Z,26.37
2022-10-18T10:48:22.033Z,21.17
2022-10-18T10:50:59.552Z,19.00
2022-10-18T10:53:41.556Z,21.37
2022-10-18T10:56:18.168Z,28.27
2022-10-18T10:58:45.139Z,23.77
2022-10-18T11:01:19.547Z,30.43
2022-10-18T11:03:48.231Z,30.20
2022-10-18T11:06:31.982Z,23.73
2022-10-18T11:09:03.245Z,34.00
2022-10-18T11:11:35.921Z,21.67
2022-10-18T11:14:26.304Z,22.23
2022-10-18T11:17:04.241Z,23.17
2022-10-18T11:19:39.222Z,22.57
2022-10-18T11:22:12.932Z,22.87
2022-10-18T11:24:40.288Z,24.00
2022-10-18T11:27:13.199Z,20.17
2022-10-18T11:29:59.029Z,24.53
2022-10-18T11:32:33.989Z,20.27
2022-10-18T11:35:21.816Z,21.30
2022-10-18T11:37:59.369Z,21.03
2022-10-18T11:40:42.270Z,22.47
2022-10-18T11:43:16.573Z,26.27
2022-10-18T11:45:49.093Z,25.23
2022-10-18T11:48:36.937Z,24.73
2022-10-18T11:51:10.708Z,32.60
2022-10-18T11:53:45.284Z,25.67
2022-10-18T11:56:20.946Z,24.03
2022-10-18T11:59:05.416Z,25.60
2022-10-18T12:01:39.239Z,19.70
2022-10-18T12:04:11.024Z,27.03
2022-10-18T12:06:39.958Z,30.23
2022-10-18T12:09:16.899Z,32.17
2022-10-18T12:11:54.875Z,25.27
2022-10-18T12:14:26.787Z,22.53
2022-10-18T12:17:19.039Z,23.03
2022-10-18T12:19:46.103Z,24.20
2022-10-18T12:22:18.127Z,18.07
2022-10-18T12:24:44.904Z,20.87
2022-10-18T12:27:14.747Z,19.87
2022-10-18T12:29:50.523Z,18.17
2022-10-18T12:32:21.987Z,17.93
2022-10-18T12:34:52.692Z,24.17
2022-10-18T12:37:50.428Z,20.50
2022-10-18T12:40:21.615Z,19.37
2022-10-18T12:42:51.665Z,24.73
2022-10-18T12:45:26.043Z,19.40
2022-10-18T12:47:54.173Z,19.87
2022-10-18T12:50:33.277Z,17.80
2022-10-18T12:53:05.887Z,17.10
2022-10-18T12:55:36.207Z,22.47
2022-10-18T12:58:26.726Z,27.17
2022-10-18T13:01:01.830Z,15.80
2022-10-18T13:03:49.585Z,22.93
2022-10-18T13:06:16.362Z,24.00
2022-10-18T13:08:45.215Z,18.63
2022-10-18T13:11:35.016Z,18.33
2022-10-18T13:14:59.081Z,18.30
2022-10-18T13:17:38.596Z,18.90
2022-10-18T13:20:26.125Z,25.83
2022-10-18T13:23:05.465Z,23.60
2022-10-18T13:25:46.483Z,20.40
2022-10-18T13:28:22.453Z,24.67
2022-10-18T13:30:57.347Z,23.77
2022-10-18T13:33:33.403Z,20.73
2022-10-18T13:36:03.335Z,17.33
2022-10-18T13:38:57.966Z,19.07
2022-10-18T13:41:27.559Z,19.30
2022-10-18T13:44:24.169Z,16.07
2022-10-18T13:47:35.928Z,20.10
2022-10-18T13:50:35.863Z,21.57
2022-10-18T13:53:34.795Z,16.77
2022-10-18T13:56:34.310Z,15.93
2022-10-18T13:59:17.593Z,16.37
2022-10-18T14:02:00.678Z,20.60
2022-10-18T14:05:10.605Z,15.80
2022-10-18T14:07:44.212Z,14.90
2022-10-18T14:10:21.189Z,18.43
2022-10-18T14:12:53.929Z,19.67
2022-10-18T14:15:24.236Z,17.00
2022-10-18T14:17:56.017Z,16.23
2022-10-18T14:20:29.353Z,18.57
2022-10-18T14:23:03.794Z,20.97
2022-10-18T14:25:34.763Z,22.60
2022-10-18T14:28:10.056Z,32.93
2022-10-18T14:30:52.270Z,20.13
2022-10-18T14:33:30.269Z,22.03
2022-10-18T14:36:03.418Z,22.67
2022-10-18T14:38:31.248Z,14.97
2022-10-18T14:41:06.847Z,16.50
2022-10-18T14:43:33.508Z,18.93
2022-10-18T14:46:09.924Z,22.57
2022-10-18T14:48:36.549Z,18.47
2022-10-18T14:51:06.840Z,25.57
2022-10-18T14:53:38.777Z,23.03
2022-10-18T14:56:20.504Z,26.30
2022-10-18T14:58:49.823Z,25.70
2022-10-18T15:01:18.918Z,29.70
2022-10-18T15:03:46.636Z,21.43
2022-10-18T15:06:17.631Z,31.57
2022-10-18T15:08:49.957Z,22.70
2022-10-18T15:11:16.975Z,29.23
2022-10-18T15:13:48.960Z,26.43
2022-10-18T15:16:17.225Z,25.70
2022-10-18T15:18:43.982Z,26.27
2022-10-18T15:21:21.609Z,29.87
2022-10-18T15:23:49.558Z,20.33
2022-10-18T15:26:22.330Z,26.53
2022-10-18T15:28:53.338Z,28.73
2022-10-18T15:31:27.546Z,28.13
2022-10-18T15:34:08.575Z,26.60
2022-10-18T15:36:36.091Z,22.00
2022-10-18T15:39:13.506Z,25.27
2022-10-18T15:41:44.435Z,27.90
2022-10-18T15:44:24.004Z,31.80
2022-10-18T15:46:52.775Z,28.60
2022-10-18T15:49:47.549Z,38.57
2022-10-18T15:52:38.763Z,31.30
2022-10-18T15:55:49.086Z,42.43
2022-10-18T15:58:21.457Z,38.93
2022-10-18T16:00:49.313Z,32.73
2022-10-18T16:03:18.076Z,30.23
2022-10-18T16:05:45.615Z,27.17
2022-10-18T16:08:24.243Z,37.97
2022-10-18T16:10:52.051Z,36.93
2022-10-18T16:13:19.028Z,37.30
2022-10-18T16:15:46.327Z,37.63
2022-10-18T16:18:17.588Z,45.80
2022-10-18T16:20:44.923Z,34.80
2022-10-18T16:23:17.751Z,34.37
2022-10-18T16:25:44.859Z,48.03
2022-10-18T16:28:15.751Z,37.30
2022-10-18T16:30:44.690Z,37.97
2022-10-18T16:33:11.495Z,32.67
2022-10-18T16:35:38.761Z,39.40
2022-10-18T16:38:06.287Z,44.43
2022-10-18T16:40:34.592Z,41.77
2022-10-18T16:43:03.121Z,35.07
2022-10-18T16:45:30.955Z,37.03
2022-10-18T16:47:57.722Z,38.33
2022-10-18T16:50:24.592Z,44.00
2022-10-18T16:52:54.700Z,39.23
2022-10-18T16:55:24.356Z,36.80
2022-10-18T16:57:51.445Z,54.87
2022-10-18T17:00:20.693Z,41.30
2022-10-18T17:02:51.708Z,36.20
2022-10-18T17:05:19.459Z,40.97
2022-10-18T17:07:46.946Z,41.57
2022-10-18T17:10:14.925Z,33.90
2022-10-18T17:12:42.139Z,38.60
2022-10-18T17:15:09.657Z,36.23
2022-10-18T17:17:37.681Z,45.77
2022-10-18T17:20:06.886Z,39.40
2022-10-18T17:22:34.076Z,44.03
2022-10-18T17:25:00.890Z,58.93
2022-10-18T17:27:27.776Z,35.03
2022-10-18T17:29:54.375Z,40.87
2022-10-18T17:32:20.958Z,40.47
2022-10-18T17:34:47.577Z,44.53
2022-10-18T17:37:15.035Z,39.67
2022-10-18T17:39:43.137Z,47.73
2022-10-18T17:42:09.984Z,40.17
2022-10-18T17:44:36.733Z,50.97
2022-10-18T17:47:03.497Z,31.90
2022-10-18T17:49:30.285Z,42.27
2022-10-18T17:51:56.854Z,41.87
2022-10-18T17:54:24.130Z,40.10
2022-10-18T17:56:53.816Z,44.00
2022-10-18T17:59:21.491Z,45.17
2022-10-18T18:01:48.252Z,66.00
2022-10-18T18:04:16.354Z,49.20
2022-10-18T18:06:44.725Z,45.90
2022-10-18T18:09:14.775Z,55.97
2022-10-18T18:11:44.279Z,52.30
2022-10-18T18:14:12.572Z,51.93
2022-10-18T18:16:40.702Z,59.10
2022-10-18T18:19:09.906Z,67.50
2022-10-18T18:21:37.659Z,47.47
2022-10-18T18:24:04.741Z,48.77
2022-10-18T18:26:31.978Z,55.30
2022-10-18T18:28:59.750Z,50.03
2022-10-18T18:31:30.705Z,60.67
2022-10-18T18:34:01.301Z,43.97
2022-10-18T18:36:28.571Z,53.43
2022-10-18T18:38:57.079Z,48.57
2022-10-18T18:41:26.018Z,61.73
2022-10-18T18:43:54.594Z,56.33
2022-10-18T18:46:22.748Z,44.67
2022-10-18T18:48:49.421Z,51.77
2022-10-18T18:51:17.882Z,56.23
2022-10-18T18:53:45.982Z,41.17
2022-10-18T18:56:14.483Z,44.40
2022-10-18T18:58:43.510Z,39.20
2022-10-18T19:01:11.742Z,34.87
2022-10-18T19:03:39.969Z,36.80
2022-10-18T19:06:08.360Z,32.77
2022-10-18T19:08:36.276Z,36.73
2022-10-18T19:11:08.036Z,40.30
2022-10-18T19:13:36.249Z,22.63
2022-10-18T19:16:24.647Z,27.17
2022-10-18T19:18:54.558Z,32.37
2022-10-18T19:21:21.609Z,30.67
2022-10-18T19:23:49.432Z,22.83
2022-10-18T19:26:28.191Z,40.47
2022-10-18T19:28:55.563Z,32.07
2022-10-18T19:31:22.976Z,27.03
2022-10-18T19:33:59.438Z,27.70
2022-10-18T19:36:28.052Z,31.33
2022-10-18T19:38:54.722Z,22.50
2022-10-18T19:41:22.949Z,26.27
2022-10-18T19:43:49.579Z,29.97
2022-10-18T19:46:16.223Z,27.53
2022-10-18T19:48:43.120Z,24.20
2022-10-18T19:51:10.382Z,23.37
2022-10-18T19:53:38.242Z,24.63
2022-10-18T19:56:06.842Z,26.50
2022-10-18T19:58:33.853Z,23.77
2022-10-18T20:01:01.645Z,27.50
2022-10-18T20:03:29.830Z,30.13
2022-10-18T20:05:57.809Z,19.53
2022-10-18T20:08:25.595Z,28.17
2022-10-18T20:10:53.048Z,27.37
2022-10-18T20:13:21.442Z,24.00
2022-10-18T20:15:48.948Z,37.80
2022-10-18T20:18:16.132Z,27.90
2022-10-18T20:20:47.251Z,22.30
2022-10-18T20:23:15.365Z,25.77
2022-10-18T20:25:42.541Z,20.83
2022-10-18T20:28:10.214Z,21.70
2022-10-18T20:30:37.122Z,29.50
2022-10-18T20:33:04.440Z,22.90
2022-10-18T20:35:31.709Z,20.57
2022-10-18T20:37:58.279Z,23.70
2022-10-18T20:40:25.604Z,22.70
2022-10-18T20:42:52.749Z,34.30
2022-10-18T20:45:20.261Z,40.03
2022-10-18T20:47:46.974Z,24.60
2022-10-18T20:50:13.918Z,21.77
2022-10-18T20:52:40.469Z,25.23
2022-10-18T20:55:07.608Z,24.03
2022-10-18T20:57:36.527Z,22.67
2022-10-18T21:00:05.483Z,22.67
2022-10-18T21:02:33.244Z,28.33
2022-10-18T21:04:59.954Z,17.53
2022-10-18T21:07:26.555Z,25.83
2022-10-18T21:09:53.172Z,25.80
2022-10-18T21:12:20.088Z,30.80
2022-10-18T21:14:46.806Z,17.53
2022-10-18T21:17:15.662Z,20.83
2022-10-18T21:19:42.971Z,25.33
2022-10-18T21:22:09.965Z,24.97
2022-10-18T21:24:36.818Z,20.60
2022-10-18T21:27:03.776Z,23.17
2022-10-18T21:29:30.638Z,25.03
2022-10-18T21:31:58.929Z,30.10
2022-10-18T21:34:25.941Z,30.23
2022-10-18T21:36:53.175Z,26.57
2022-10-18T21:41:53.873Z,25.73
2022-10-18T21:44:20.668Z,22.40
2022-10-18T21:46:47.371Z,15.30
2022-10-18T21:49:14.859Z,20.23
2022-10-18T21:51:41.892Z,15.00
2022-10-18T21:54:12.451Z,17.30
2022-10-18T21:56:40.140Z,25.47
2022-10-18T21:59:07.497Z,19.80
2022-10-18T22:01:35.882Z,36.27
2022-10-18T22:04:04.240Z,24.27
2022-10-18T22:06:33.142Z,16.03
2022-10-18T22:09:04.687Z,24.33
2022-10-18T22:11:33.887Z,27.80
2022-10-18T22:14:00.766Z,33.83
2022-10-18T22:16:28.147Z,24.43
2022-10-18T22:18:58.723Z,18.20
2022-10-18T22:21:25.763Z,24.23
2022-10-18T22:23:54.034Z,20.47
2022-10-18T22:26:22.427Z,18.43
2022-10-18T22:28:55.439Z,28.57
2022-10-18T22:31:24.260Z,10.47
2022-10-18T22:33:53.089Z,19.27
2022-10-18T22:36:19.773Z,21.03
2022-10-18T22:38:47.620Z,16.33
2022-10-18T22:41:14.426Z,20.90
2022-10-18T22:43:41.071Z,22.70
2022-10-18T22:46:10.971Z,23.83
2022-10-18T22:48:38.177Z,26.83
2022-10-18T22:51:05.292Z,18.83
2022-10-18T22:53:33.084Z,14.50
2022-10-18T22:55:59.624Z,17.47
2022-10-18T22:58:26.496Z,16.93
2022-10-18T23:01:00.379Z,24.10
2022-10-18T23:03:27.753Z,16.83
2022-10-18T23:05:54.407Z,10.70
2022-10-18T23:08:21.661Z,14.87
2022-10-18T23:10:51.713Z,22.80
2022-10-18T23:13:18.384Z,14.23
2022-10-18T23:15:44.998Z,23.40
2022-10-18T23:18:11.521Z,23.40
2022-10-18T23:20:38.770Z,23.70
2022-10-18T23:23:05.453Z,20.00
2022-10-18T23:25:35.420Z,19.77
2022-10-18T23:28:02.076Z,15.30
2022-10-18T23:30:28.680Z,22.57
2022-10-18T23:32:55.699Z,14.83
2022-10-18T23:35:22.883Z,27.13
2022-10-18T23:37:51.274Z,15.20
2022-10-18T23:40:18.091Z,19.80
2022-10-18T23:42:44.997Z,22.57
2022-10-18T23:45:11.596Z,13.83
2022-10-18T23:47:38.163Z,20.20
2022-10-18T23:50:05.675Z,26.20
2022-10-18T23:52:32.266Z,8.73
2022-10-18T23:54:59.524Z,24.33
2022-10-18T23:57:26.070Z,28.20
2022-10-18T23:59:52.664Z,13.40
